Portada
METAR-TAF:

METAR-TAF

Aeropuertos :

Aeropuerto Internacional de Recife

Recife, Pernambuco, Brasil

latitud: 08-08S, longitud: 034-55W, altitud: 19 m

Observación

El informe se hizo hace 34 minutos, a las 08:00 UTC
Viento 5 kt del noroeste
Temperatura 24°C
Humedad 89%
Presión 1012 hPa
Visibilidad 10 km o más
Nubes dispersas a una altura de 2000 ft

METAR: SBRF 150800Z 31005KT 9999 SCT020 24/22 Q1012

Hora: 05:34 (08:34 UTC)

Pronóstico

El informe se hizo hace 4 horas y 34 minutos, a las 04:00 UTC
Pronóstico válido del 15 a las 06 UTC al 16 a las 06 UTC
Viento 7 kt del este
Visibilidad: 9000 m
Nubes dispersas a una altura de 2200 ft

TAF: SBRF 150400Z 1506/1606 08007KT 9000 SCT022 TN25/1508Z TX29/1515Z RMK PEA

Observaciones y pronósticos meteorológicos de más de 4000 aeropuertos (mensajes METAR y TAF).

Los puntos amarillos y rojos representan las estaciones disponibles.

Ponga el ratón en el punto deseado para ver el nombre de la estación.

Haga clic para ver las observaciones y los pronósticos meteorológicos.

Para cambiar el mapa : haga clic en los botones verdes con una cruz de color negro para hacer un zoom, en el botón verde con un guión para alejar o en las flechas verdes para mapas adyacentes.


METAR-TAF: